»·PEaware :: N422ST KOTH-KYKM

N422ST :: KOTH-KYKM

FLIGHT INFORMATION

Flight Status: Arrived
Operator: Privately registered:
United States
More flights under this callsign
Pilot: Skye D. (10623)
Aircraft: ECLIPSE 500
(EA50)
More flights by this aircraft type
Origin: KOTH North Bend Mun
United States
Destination: KYKM Yakima Air Term/Mcallister
United States
More flights between these airports :: More routes between these airports
Route: OTH6 SCOTY EUG J143 LTJ YKM
File this flight plan on PilotEdge
Remarks:
Altitude:
(Current/Filed)
25,000ft
Speed:
(Current/Filed)
368kts
Departed: 01-Nov-17 09:31 AM
Arrived: 01-Nov-17 10:36 AM
Distance/Time
Traveled:
246nm/1:04
Distance/Time
To Go:
Arrived

Flight Plot

Page will automatically refresh every two minutes.

Flight plan parsing failed; only flown route is shown


Map Options




Map Legend


Flown Route
Filed Route
Departure Airport
Arrival Airport
Navaid (VOR, NDB)
Fix

Horizontal Profiles

Position Reports

Time Latitude Longitude Heading Altitude Ground
Speed
01-Nov-17 09:13 43.417683 -124.247385 150 20ft 0kts
01-Nov-17 09:14 43.417683 -124.247385 150 20ft 0kts
01-Nov-17 09:15 43.417683 -124.247385 150 20ft 0kts
01-Nov-17 09:16 43.417683 -124.247385 150 20ft 0kts
01-Nov-17 09:17 43.417683 -124.247385 150 20ft 0kts
01-Nov-17 09:18 43.417683 -124.247385 150 20ft 0kts
01-Nov-17 09:19 43.417683 -124.247385 150 20ft 0kts
01-Nov-17 09:20 43.417683 -124.247385 150 20ft 0kts
01-Nov-17 09:21 43.417683 -124.247385 150 20ft 0kts
01-Nov-17 09:22 43.417683 -124.247385 150 20ft 0kts
01-Nov-17 09:23 43.417683 -124.247385 150 20ft 0kts
01-Nov-17 09:24 43.417683 -124.247385 150 20ft 0kts
01-Nov-17 09:25 43.417683 -124.247385 150 20ft 0kts
01-Nov-17 09:26 43.417683 -124.247385 150 20ft 0kts
01-Nov-17 09:27 43.417683 -124.247385 150 20ft 0kts
01-Nov-17 09:28 43.417683 -124.247385 150 20ft 0kts
01-Nov-17 09:29 43.417683 -124.247385 150 20ft 0kts
01-Nov-17 09:30 43.417719 -124.246602 59 20ft 0kts
01-Nov-17 09:31 43.418909 -124.247009 307 20ft 2kts
01-Nov-17 09:32 43.417511 -124.250773 240 20ft 11kts
01-Nov-17 09:33 43.415616 -124.255380 239 20ft 16kts
01-Nov-17 09:34 43.414001 -124.259918 297 20ft 4kts
01-Nov-17 09:35 43.414621 -124.260433 332 20ft 5kts
01-Nov-17 09:36 43.423418 -124.240027 61 452ft 138kts
01-Nov-17 09:37 43.464064 -124.240196 309 1294ft 231kts
01-Nov-17 09:38 43.445610 -124.323811 235 1644ft 255kts
01-Nov-17 09:39 43.419863 -124.404918 262 3115ft 254kts
01-Nov-17 09:40 43.436003 -124.481458 335 4502ft 230kts
01-Nov-17 09:41 43.478886 -124.443265 49 6512ft 248kts
01-Nov-17 09:42 43.511151 -124.380057 47 8019ft 262kts
01-Nov-17 09:43 43.545655 -124.314542 47 9441ft 273kts
01-Nov-17 09:44 43.586496 -124.237788 46 10977ft 282kts
01-Nov-17 09:45 43.630369 -124.155564 45 12426ft 290kts
01-Nov-17 09:46 43.669354 -124.082504 44 13566ft 297kts
01-Nov-17 09:47 43.712898 -124.000828 44 14717ft 304kts
01-Nov-17 09:48 43.760290 -123.911566 44 15796ft 313kts
01-Nov-17 09:49 43.810496 -123.816836 44 16873ft 319kts
01-Nov-17 09:50 43.859788 -123.723392 43 17811ft 326kts
01-Nov-17 09:51 43.910590 -123.626900 43 18706ft 331kts
01-Nov-17 09:52 43.959678 -123.533326 43 19501ft 336kts
01-Nov-17 09:53 44.011462 -123.434264 43 20270ft 340kts
01-Nov-17 09:54 44.064266 -123.333074 43 20960ft 345kts
01-Nov-17 09:55 44.115598 -123.235467 43 21546ft 349kts
01-Nov-17 09:56 44.175834 -123.153562 32 22110ft 341kts
01-Nov-17 09:57 44.240897 -123.069309 31 22676ft 344kts
01-Nov-17 09:58 44.307784 -122.982766 30 23214ft 347kts
01-Nov-17 09:59 44.375520 -122.895144 30 23723ft 350kts
01-Nov-17 10:00 44.445995 -122.803628 30 24232ft 352kts
01-Nov-17 10:01 44.517275 -122.710738 30 24692ft 355kts
01-Nov-17 10:02 44.581416 -122.626903 30 25025ft 359kts
01-Nov-17 10:03 44.642071 -122.547316 30 25032ft 353kts
01-Nov-17 10:04 44.702577 -122.467745 30 25031ft 354kts
01-Nov-17 10:05 44.762528 -122.388580 29 25033ft 354kts
01-Nov-17 10:06 44.819608 -122.313397 28 25020ft 358kts
01-Nov-17 10:07 44.884612 -122.228128 28 25002ft 356kts
01-Nov-17 10:08 44.948523 -122.143254 28 25002ft 357kts
01-Nov-17 10:09 45.013074 -122.057081 28 25001ft 357kts
01-Nov-17 10:10 45.078865 -121.968925 28 24987ft 357kts
01-Nov-17 10:11 45.137762 -121.889743 28 24995ft 357kts
01-Nov-17 10:12 45.206305 -121.797294 29 24919ft 357kts
01-Nov-17 10:13 45.265693 -121.716837 28 24914ft 351kts
01-Nov-17 10:14 45.318748 -121.645049 29 24160ft 371kts
01-Nov-17 10:15 45.379403 -121.562381 29 23129ft 364kts
01-Nov-17 10:16 45.439056 -121.480903 29 22097ft 357kts
01-Nov-17 10:17 45.497141 -121.401353 29 21076ft 351kts
01-Nov-17 10:18 45.554483 -121.322984 30 19853ft 344kts
01-Nov-17 10:19 45.611643 -121.245140 31 18488ft 336kts
01-Nov-17 10:20 45.668300 -121.167131 31 17152ft 328kts
01-Nov-17 10:21 45.723473 -121.097526 16 17053ft 310kts
01-Nov-17 10:22 45.788373 -121.045864 15 16437ft 305kts
01-Nov-17 10:23 45.855181 -120.994493 14 15516ft 300kts
01-Nov-17 10:24 45.924075 -120.942001 14 14554ft 295kts
01-Nov-17 10:25 45.991043 -120.891023 14 13606ft 291kts
01-Nov-17 10:26 46.055775 -120.841594 15 12677ft 287kts
01-Nov-17 10:27 46.119000 -120.793113 15 11770ft 283kts
01-Nov-17 10:28 46.180656 -120.745798 15 11028ft 277kts
01-Nov-17 10:29 46.244955 -120.696441 16 10385ft 274kts
01-Nov-17 10:30 46.285366 -120.603347 63 9339ft 305kts
01-Nov-17 10:31 46.311139 -120.494254 63 9005ft 303kts
01-Nov-17 10:32 46.355918 -120.423016 25 7867ft 268kts
01-Nov-17 10:33 46.410499 -120.366900 25 6139ft 254kts
01-Nov-17 10:34 46.461291 -120.317646 22 4493ft 238kts
01-Nov-17 10:35 46.508416 -120.319495 319 3973ft 192kts
01-Nov-17 10:36 46.523920 -120.377809 294 3213ft 184kts
01-Nov-17 10:37 46.538200 -120.424553 296 2681ft 135kts
01-Nov-17 10:38 46.548273 -120.464474 292 2043ft 135kts
01-Nov-17 10:39 46.558764 -120.504622 292 1509ft 124kts
01-Nov-17 10:40 46.567961 -120.541215 289 1098ft 88kts
01-Nov-17 10:41 46.570719 -120.549360 22 1098ft 5kts
01-Nov-17 10:42 46.570829 -120.547482 30 1098ft 5kts
01-Nov-17 10:43 46.571148 -120.547589 277 1098ft 0kts

Navigation Log

Ident Type
Flight plan parsing failed, navigation log unavailable